sensor_id;sensor_type;location;lat;lon;timestamp;P1;durP1;ratioP1;P2;durP2;ratioP2
46411;SDS011;32113;42.012;24.870;2023-10-19T00:02:06;5.18;;;4.65;;
46411;SDS011;32113;42.012;24.870;2023-10-19T00:04:32;6.40;;;4.47;;
46411;SDS011;32113;42.012;24.870;2023-10-19T00:06:59;6.93;;;4.43;;
46411;SDS011;32113;42.012;24.870;2023-10-19T00:09:25;7.57;;;4.47;;
46411;SDS011;32113;42.012;24.870;2023-10-19T00:11:56;5.45;;;4.75;;
46411;SDS011;32113;42.012;24.870;2023-10-19T00:14:22;9.90;;;5.28;;
46411;SDS011;32113;42.012;24.870;2023-10-19T00:16:51;5.78;;;5.18;;
46411;SDS011;32113;42.012;24.870;2023-10-19T00:19:21;4.18;;;3.67;;
46411;SDS011;32113;42.012;24.870;2023-10-19T00:21:47;4.80;;;4.00;;
46411;SDS011;32113;42.012;24.870;2023-10-19T00:24:18;5.40;;;4.43;;
46411;SDS011;32113;42.012;24.870;2023-10-19T00:26:47;5.97;;;4.15;;
46411;SDS011;32113;42.012;24.870;2023-10-19T00:29:13;5.50;;;4.25;;
46411;SDS011;32113;42.012;24.870;2023-10-19T00:32:00;4.95;;;4.20;;
46411;SDS011;32113;42.012;24.870;2023-10-19T00:34:27;4.57;;;3.90;;
46411;SDS011;32113;42.012;24.870;2023-10-19T00:36:56;5.18;;;4.15;;
46411;SDS011;32113;42.012;24.870;2023-10-19T00:39:22;4.95;;;3.90;;
46411;SDS011;32113;42.012;24.870;2023-10-19T00:41:49;5.55;;;3.50;;
46411;SDS011;32113;42.012;24.870;2023-10-19T00:44:15;3.80;;;3.10;;
46411;SDS011;32113;42.012;24.870;2023-10-19T00:46:43;3.67;;;3.22;;
46411;SDS011;32113;42.012;24.870;2023-10-19T00:49:14;8.40;;;4.28;;
46411;SDS011;32113;42.012;24.870;2023-10-19T00:51:45;5.03;;;4.22;;
46411;SDS011;32113;42.012;24.870;2023-10-19T00:57:06;5.55;;;4.00;;
46411;SDS011;32113;42.012;24.870;2023-10-19T00:59:36;6.90;;;3.50;;
46411;SDS011;32113;42.012;24.870;2023-10-19T01:02:12;8.18;;;4.10;;
46411;SDS011;32113;42.012;24.870;2023-10-19T01:04:51;5.22;;;3.25;;
46411;SDS011;32113;42.012;24.870;2023-10-19T01:07:22;3.58;;;2.53;;
46411;SDS011;32113;42.012;24.870;2023-10-19T01:09:55;3.17;;;2.15;;
46411;SDS011;32113;42.012;24.870;2023-10-19T01:12:22;3.72;;;2.30;;
46411;SDS011;32113;42.012;24.870;2023-10-19T01:17:52;4.22;;;2.85;;
46411;SDS011;32113;42.012;24.870;2023-10-19T01:20:22;3.33;;;2.65;;
46411;SDS011;32113;42.012;24.870;2023-10-19T01:22:58;3.03;;;2.55;;
46411;SDS011;32113;42.012;24.870;2023-10-19T01:25:50;2.95;;;2.58;;
46411;SDS011;32113;42.012;24.870;2023-10-19T01:28:20;7.38;;;3.17;;
46411;SDS011;32113;42.012;24.870;2023-10-19T01:30:49;4.25;;;3.60;;
46411;SDS011;32113;42.012;24.870;2023-10-19T01:33:17;4.43;;;3.10;;
46411;SDS011;32113;42.012;24.870;2023-10-19T01:35:44;3.95;;;3.38;;
46411;SDS011;32113;42.012;24.870;2023-10-19T01:38:28;5.90;;;3.05;;
46411;SDS011;32113;42.012;24.870;2023-10-19T01:41:00;6.93;;;3.30;;
46411;SDS011;32113;42.012;24.870;2023-10-19T01:43:29;4.10;;;3.58;;
46411;SDS011;32113;42.012;24.870;2023-10-19T01:46:00;3.97;;;2.72;;
46411;SDS011;32113;42.012;24.870;2023-10-19T01:48:29;4.15;;;3.08;;
46411;SDS011;32113;42.012;24.870;2023-10-19T01:50:59;3.67;;;2.90;;
46411;SDS011;32113;42.012;24.870;2023-10-19T01:53:28;3.40;;;2.85;;
46411;SDS011;32113;42.012;24.870;2023-10-19T01:55:54;3.58;;;3.08;;
46411;SDS011;32113;42.012;24.870;2023-10-19T01:58:26;4.25;;;3.28;;
46411;SDS011;32113;42.012;24.870;2023-10-19T02:00:54;3.70;;;3.00;;
46411;SDS011;32113;42.012;24.870;2023-10-19T02:03:25;4.28;;;3.05;;
46411;SDS011;32113;42.012;24.870;2023-10-19T02:08:26;4.38;;;3.25;;
46411;SDS011;32113;42.012;24.870;2023-10-19T02:10:52;6.75;;;2.75;;
46411;SDS011;32113;42.012;24.870;2023-10-19T02:13:19;3.38;;;2.08;;
46411;SDS011;32113;42.012;24.870;2023-10-19T02:15:44;3.17;;;2.70;;
46411;SDS011;32113;42.012;24.870;2023-10-19T02:18:10;4.53;;;2.40;;
46411;SDS011;32113;42.012;24.870;2023-10-19T02:20:36;3.05;;;2.40;;
46411;SDS011;32113;42.012;24.870;2023-10-19T02:23:06;4.97;;;2.72;;
46411;SDS011;32113;42.012;24.870;2023-10-19T02:25:33;6.38;;;2.47;;
46411;SDS011;32113;42.012;24.870;2023-10-19T02:28:04;4.65;;;2.78;;
46411;SDS011;32113;42.012;24.870;2023-10-19T02:30:34;8.68;;;2.50;;
46411;SDS011;32113;42.012;24.870;2023-10-19T02:33:00;6.07;;;2.53;;
46411;SDS011;32113;42.012;24.870;2023-10-19T02:35:31;2.17;;;1.90;;
46411;SDS011;32113;42.012;24.870;2023-10-19T02:37:56;3.75;;;2.42;;
46411;SDS011;32113;42.012;24.870;2023-10-19T02:40:23;2.50;;;2.05;;
46411;SDS011;32113;42.012;24.870;2023-10-19T02:42:49;3.72;;;2.40;;
46411;SDS011;32113;42.012;24.870;2023-10-19T02:45:18;4.38;;;2.40;;
46411;SDS011;32113;42.012;24.870;2023-10-19T02:47:44;4.60;;;2.58;;
46411;SDS011;32113;42.012;24.870;2023-10-19T02:50:10;3.20;;;2.55;;
46411;SDS011;32113;42.012;24.870;2023-10-19T02:52:42;2.88;;;2.40;;
46411;SDS011;32113;42.012;24.870;2023-10-19T02:55:08;5.07;;;2.47;;
46411;SDS011;32113;42.012;24.870;2023-10-19T02:57:37;2.92;;;2.25;;
46411;SDS011;32113;42.012;24.870;2023-10-19T03:00:05;4.25;;;2.20;;
46411;SDS011;32113;42.012;24.870;2023-10-19T03:02:36;6.40;;;2.28;;
46411;SDS011;32113;42.012;24.870;2023-10-19T03:05:02;2.40;;;2.00;;
46411;SDS011;32113;42.012;24.870;2023-10-19T03:07:37;4.05;;;2.55;;
46411;SDS011;32113;42.012;24.870;2023-10-19T03:10:04;2.83;;;2.28;;
46411;SDS011;32113;42.012;24.870;2023-10-19T03:12:30;4.07;;;2.33;;
46411;SDS011;32113;42.012;24.870;2023-10-19T03:14:56;2.78;;;2.33;;
46411;SDS011;32113;42.012;24.870;2023-10-19T03:17:21;3.40;;;2.22;;
46411;SDS011;32113;42.012;24.870;2023-10-19T03:19:46;2.63;;;1.83;;
46411;SDS011;32113;42.012;24.870;2023-10-19T03:22:13;3.20;;;2.38;;
46411;SDS011;32113;42.012;24.870;2023-10-19T03:24:39;2.97;;;2.50;;
46411;SDS011;32113;42.012;24.870;2023-10-19T03:27:08;6.57;;;2.83;;
46411;SDS011;32113;42.012;24.870;2023-10-19T03:29:47;3.83;;;2.42;;
46411;SDS011;32113;42.012;24.870;2023-10-19T03:32:14;3.00;;;2.42;;
46411;SDS011;32113;42.012;24.870;2023-10-19T03:34:41;3.05;;;2.30;;
46411;SDS011;32113;42.012;24.870;2023-10-19T03:37:12;3.33;;;2.67;;
46411;SDS011;32113;42.012;24.870;2023-10-19T03:39:39;4.38;;;2.60;;
46411;SDS011;32113;42.012;24.870;2023-10-19T03:42:05;3.63;;;2.55;;
46411;SDS011;32113;42.012;24.870;2023-10-19T03:44:34;3.72;;;2.80;;
46411;SDS011;32113;42.012;24.870;2023-10-19T03:47:23;7.28;;;3.00;;
46411;SDS011;32113;42.012;24.870;2023-10-19T03:50:00;4.18;;;2.67;;
46411;SDS011;32113;42.012;24.870;2023-10-19T03:52:31;3.40;;;2.63;;
46411;SDS011;32113;42.012;24.870;2023-10-19T03:54:56;3.88;;;2.90;;
46411;SDS011;32113;42.012;24.870;2023-10-19T03:57:22;4.00;;;2.70;;
46411;SDS011;32113;42.012;24.870;2023-10-19T03:59:49;3.35;;;2.35;;
46411;SDS011;32113;42.012;24.870;2023-10-19T04:02:15;3.28;;;2.30;;
46411;SDS011;32113;42.012;24.870;2023-10-19T04:04:42;2.70;;;2.25;;
46411;SDS011;32113;42.012;24.870;2023-10-19T04:07:09;4.43;;;2.50;;
46411;SDS011;32113;42.012;24.870;2023-10-19T04:09:39;3.83;;;2.30;;
46411;SDS011;32113;42.012;24.870;2023-10-19T04:12:22;3.38;;;2.53;;
46411;SDS011;32113;42.012;24.870;2023-10-19T04:14:48;6.10;;;2.83;;
46411;SDS011;32113;42.012;24.870;2023-10-19T04:17:14;6.03;;;2.33;;
46411;SDS011;32113;42.012;24.870;2023-10-19T04:19:42;5.20;;;3.03;;
46411;SDS011;32113;42.012;24.870;2023-10-19T04:22:09;7.55;;;3.90;;
46411;SDS011;32113;42.012;24.870;2023-10-19T04:24:36;6.07;;;2.70;;
46411;SDS011;32113;42.012;24.870;2023-10-19T04:27:01;4.15;;;2.45;;
46411;SDS011;32113;42.012;24.870;2023-10-19T04:29:27;4.40;;;2.80;;
46411;SDS011;32113;42.012;24.870;2023-10-19T04:31:52;3.95;;;3.00;;
46411;SDS011;32113;42.012;24.870;2023-10-19T04:34:22;6.93;;;2.90;;
46411;SDS011;32113;42.012;24.870;2023-10-19T04:36:48;9.90;;;4.40;;
46411;SDS011;32113;42.012;24.870;2023-10-19T04:39:14;6.80;;;3.58;;
46411;SDS011;32113;42.012;24.870;2023-10-19T04:41:40;5.13;;;3.13;;
46411;SDS011;32113;42.012;24.870;2023-10-19T04:44:06;8.70;;;3.33;;
46411;SDS011;32113;42.012;24.870;2023-10-19T04:46:33;5.45;;;3.65;;
46411;SDS011;32113;42.012;24.870;2023-10-19T04:48:59;4.22;;;2.92;;
46411;SDS011;32113;42.012;24.870;2023-10-19T04:51:25;4.25;;;2.42;;
46411;SDS011;32113;42.012;24.870;2023-10-19T04:53:50;3.78;;;2.40;;
46411;SDS011;32113;42.012;24.870;2023-10-19T04:56:16;8.85;;;2.45;;
46411;SDS011;32113;42.012;24.870;2023-10-19T04:58:41;4.07;;;2.75;;
46411;SDS011;32113;42.012;24.870;2023-10-19T05:01:07;6.57;;;2.45;;
46411;SDS011;32113;42.012;24.870;2023-10-19T05:03:32;5.60;;;2.60;;
46411;SDS011;32113;42.012;24.870;2023-10-19T05:05:58;5.28;;;2.80;;
46411;SDS011;32113;42.012;24.870;2023-10-19T05:08:24;3.55;;;2.30;;
46411;SDS011;32113;42.012;24.870;2023-10-19T05:10:53;4.03;;;2.20;;
46411;SDS011;32113;42.012;24.870;2023-10-19T05:13:24;3.83;;;2.03;;
46411;SDS011;32113;42.012;24.870;2023-10-19T05:15:50;3.33;;;2.30;;
46411;SDS011;32113;42.012;24.870;2023-10-19T05:18:18;2.95;;;2.22;;
46411;SDS011;32113;42.012;24.870;2023-10-19T05:20:44;4.90;;;2.00;;
46411;SDS011;32113;42.012;24.870;2023-10-19T05:23:11;2.88;;;1.90;;
46411;SDS011;32113;42.012;24.870;2023-10-19T05:25:38;6.20;;;2.10;;
46411;SDS011;32113;42.012;24.870;2023-10-19T05:28:07;4.55;;;2.20;;
46411;SDS011;32113;42.012;24.870;2023-10-19T05:30:33;2.65;;;1.90;;
46411;SDS011;32113;42.012;24.870;2023-10-19T05:33:00;2.67;;;2.10;;
46411;SDS011;32113;42.012;24.870;2023-10-19T05:35:30;2.60;;;1.90;;
46411;SDS011;32113;42.012;24.870;2023-10-19T05:37:56;2.95;;;2.13;;
46411;SDS011;32113;42.012;24.870;2023-10-19T05:40:22;3.88;;;2.10;;
46411;SDS011;32113;42.012;24.870;2023-10-19T05:42:54;4.70;;;2.00;;
46411;SDS011;32113;42.012;24.870;2023-10-19T05:45:20;4.47;;;1.95;;
46411;SDS011;32113;42.012;24.870;2023-10-19T05:47:45;3.00;;;2.03;;
46411;SDS011;32113;42.012;24.870;2023-10-19T05:50:10;4.85;;;2.00;;
46411;SDS011;32113;42.012;24.870;2023-10-19T05:52:40;6.07;;;2.40;;
46411;SDS011;32113;42.012;24.870;2023-10-19T05:55:07;2.42;;;1.63;;
46411;SDS011;32113;42.012;24.870;2023-10-19T05:57:33;8.68;;;2.05;;
46411;SDS011;32113;42.012;24.870;2023-10-19T05:59:59;3.60;;;1.90;;
46411;SDS011;32113;42.012;24.870;2023-10-19T06:02:24;2.70;;;1.80;;
46411;SDS011;32113;42.012;24.870;2023-10-19T06:04:50;2.45;;;1.88;;
46411;SDS011;32113;42.012;24.870;2023-10-19T06:07:16;2.35;;;1.67;;
46411;SDS011;32113;42.012;24.870;2023-10-19T06:09:41;2.00;;;1.70;;
46411;SDS011;32113;42.012;24.870;2023-10-19T06:12:06;2.33;;;1.77;;
46411;SDS011;32113;42.012;24.870;2023-10-19T06:14:34;2.33;;;1.70;;
46411;SDS011;32113;42.012;24.870;2023-10-19T06:16:59;4.05;;;1.50;;
46411;SDS011;32113;42.012;24.870;2023-10-19T06:19:26;2.22;;;1.70;;
46411;SDS011;32113;42.012;24.870;2023-10-19T06:21:52;5.43;;;1.80;;
46411;SDS011;32113;42.012;24.870;2023-10-19T06:24:17;2.83;;;1.95;;
46411;SDS011;32113;42.012;24.870;2023-10-19T06:26:43;4.03;;;2.08;;
46411;SDS011;32113;42.012;24.870;2023-10-19T06:29:09;6.43;;;1.90;;
46411;SDS011;32113;42.012;24.870;2023-10-19T06:31:35;2.40;;;1.83;;
46411;SDS011;32113;42.012;24.870;2023-10-19T06:34:01;3.92;;;1.80;;
46411;SDS011;32113;42.012;24.870;2023-10-19T06:36:28;2.42;;;1.83;;
46411;SDS011;32113;42.012;24.870;2023-10-19T06:38:54;5.72;;;2.10;;
46411;SDS011;32113;42.012;24.870;2023-10-19T06:41:19;1.77;;;1.55;;
46411;SDS011;32113;42.012;24.870;2023-10-19T06:43:45;3.25;;;2.10;;
46411;SDS011;32113;42.012;24.870;2023-10-19T06:46:11;3.60;;;2.10;;
46411;SDS011;32113;42.012;24.870;2023-10-19T06:48:37;2.92;;;1.95;;
46411;SDS011;32113;42.012;24.870;2023-10-19T06:51:03;2.35;;;1.70;;
46411;SDS011;32113;42.012;24.870;2023-10-19T06:53:28;4.75;;;1.98;;
46411;SDS011;32113;42.012;24.870;2023-10-19T06:55:54;4.20;;;2.47;;
46411;SDS011;32113;42.012;24.870;2023-10-19T06:58:20;5.38;;;4.30;;
46411;SDS011;32113;42.012;24.870;2023-10-19T07:00:46;7.88;;;4.43;;
46411;SDS011;32113;42.012;24.870;2023-10-19T07:03:21;26.23;;;11.20;;
46411;SDS011;32113;42.012;24.870;2023-10-19T07:05:47;23.20;;;12.90;;
46411;SDS011;32113;42.012;24.870;2023-10-19T07:08:14;27.00;;;14.07;;
46411;SDS011;32113;42.012;24.870;2023-10-19T07:10:40;27.50;;;14.23;;
46411;SDS011;32113;42.012;24.870;2023-10-19T07:13:05;23.83;;;14.95;;
46411;SDS011;32113;42.012;24.870;2023-10-19T07:15:31;21.00;;;14.75;;
46411;SDS011;32113;42.012;24.870;2023-10-19T07:17:56;19.60;;;14.32;;
46411;SDS011;32113;42.012;24.870;2023-10-19T07:20:23;26.17;;;15.45;;
46411;SDS011;32113;42.012;24.870;2023-10-19T07:22:55;21.40;;;14.60;;
46411;SDS011;32113;42.012;24.870;2023-10-19T07:25:21;22.15;;;15.30;;
46411;SDS011;32113;42.012;24.870;2023-10-19T07:27:50;22.10;;;14.95;;
46411;SDS011;32113;42.012;24.870;2023-10-19T07:30:17;21.52;;;13.73;;
46411;SDS011;32113;42.012;24.870;2023-10-19T07:32:49;25.05;;;15.55;;
46411;SDS011;32113;42.012;24.870;2023-10-19T07:35:25;19.02;;;14.77;;
46411;SDS011;32113;42.012;24.870;2023-10-19T07:37:52;19.83;;;13.52;;
46411;SDS011;32113;42.012;24.870;2023-10-19T07:40:18;23.75;;;12.93;;
46411;SDS011;32113;42.012;24.870;2023-10-19T07:42:44;18.40;;;13.27;;
46411;SDS011;32113;42.012;24.870;2023-10-19T07:45:09;17.60;;;12.48;;
46411;SDS011;32113;42.012;24.870;2023-10-19T07:47:39;15.57;;;11.88;;
46411;SDS011;32113;42.012;24.870;2023-10-19T07:50:09;20.13;;;11.95;;
46411;SDS011;32113;42.012;24.870;2023-10-19T07:52:41;15.68;;;11.48;;
46411;SDS011;32113;42.012;24.870;2023-10-19T07:55:12;18.80;;;12.10;;
46411;SDS011;32113;42.012;24.870;2023-10-19T07:57:38;18.83;;;11.23;;
46411;SDS011;32113;42.012;24.870;2023-10-19T08:00:05;15.10;;;11.20;;
46411;SDS011;32113;42.012;24.870;2023-10-19T08:02:33;17.13;;;12.43;;
46411;SDS011;32113;42.012;24.870;2023-10-19T08:05:00;13.57;;;11.15;;
46411;SDS011;32113;42.012;24.870;2023-10-19T08:07:28;25.42;;;11.90;;
46411;SDS011;32113;42.012;24.870;2023-10-19T08:09:54;24.35;;;12.65;;
46411;SDS011;32113;42.012;24.870;2023-10-19T08:12:20;17.40;;;11.95;;
46411;SDS011;32113;42.012;24.870;2023-10-19T08:14:47;15.27;;;12.33;;
46411;SDS011;32113;42.012;24.870;2023-10-19T08:17:13;18.48;;;12.20;;
46411;SDS011;32113;42.012;24.870;2023-10-19T08:19:39;21.67;;;13.23;;
46411;SDS011;32113;42.012;24.870;2023-10-19T08:22:05;15.63;;;11.20;;
46411;SDS011;32113;42.012;24.870;2023-10-19T08:24:30;21.25;;;11.73;;
46411;SDS011;32113;42.012;24.870;2023-10-19T08:27:00;13.77;;;12.13;;
46411;SDS011;32113;42.012;24.870;2023-10-19T08:29:25;17.00;;;11.80;;
46411;SDS011;32113;42.012;24.870;2023-10-19T08:31:51;18.27;;;12.70;;
46411;SDS011;32113;42.012;24.870;2023-10-19T08:34:16;16.90;;;13.10;;
46411;SDS011;32113;42.012;24.870;2023-10-19T08:36:42;17.35;;;12.68;;
46411;SDS011;32113;42.012;24.870;2023-10-19T08:39:08;16.25;;;12.55;;
46411;SDS011;32113;42.012;24.870;2023-10-19T08:41:36;16.08;;;12.07;;
46411;SDS011;32113;42.012;24.870;2023-10-19T08:44:03;15.13;;;12.38;;
46411;SDS011;32113;42.012;24.870;2023-10-19T08:46:35;18.92;;;12.55;;
46411;SDS011;32113;42.012;24.870;2023-10-19T08:49:05;20.30;;;13.90;;
46411;SDS011;32113;42.012;24.870;2023-10-19T08:51:35;16.48;;;12.55;;
46411;SDS011;32113;42.012;24.870;2023-10-19T08:54:02;17.30;;;12.13;;
46411;SDS011;32113;42.012;24.870;2023-10-19T08:56:30;16.77;;;12.10;;
46411;SDS011;32113;42.012;24.870;2023-10-19T09:01:23;18.23;;;12.38;;
46411;SDS011;32113;42.012;24.870;2023-10-19T09:03:49;19.80;;;12.57;;
46411;SDS011;32113;42.012;24.870;2023-10-19T09:06:15;18.13;;;12.45;;
46411;SDS011;32113;42.012;24.870;2023-10-19T09:08:41;15.82;;;12.35;;
46411;SDS011;32113;42.012;24.870;2023-10-19T09:11:10;17.92;;;13.30;;
46411;SDS011;32113;42.012;24.870;2023-10-19T09:13:45;15.60;;;12.25;;
46411;SDS011;32113;42.012;24.870;2023-10-19T09:16:15;16.05;;;12.93;;
46411;SDS011;32113;42.012;24.870;2023-10-19T09:18:41;17.05;;;13.50;;
46411;SDS011;32113;42.012;24.870;2023-10-19T09:21:07;16.52;;;13.00;;
46411;SDS011;32113;42.012;24.870;2023-10-19T09:23:36;18.38;;;13.82;;
46411;SDS011;32113;42.012;24.870;2023-10-19T09:26:02;22.88;;;12.48;;
46411;SDS011;32113;42.012;24.870;2023-10-19T09:28:28;17.77;;;13.25;;
46411;SDS011;32113;42.012;24.870;2023-10-19T09:30:55;18.83;;;13.45;;
46411;SDS011;32113;42.012;24.870;2023-10-19T09:33:21;15.15;;;13.52;;
46411;SDS011;32113;42.012;24.870;2023-10-19T09:35:49;16.25;;;14.45;;
46411;SDS011;32113;42.012;24.870;2023-10-19T09:38:19;17.00;;;14.32;;
46411;SDS011;32113;42.012;24.870;2023-10-19T09:40:48;16.45;;;13.52;;
46411;SDS011;32113;42.012;24.870;2023-10-19T09:43:30;20.65;;;14.60;;
46411;SDS011;32113;42.012;24.870;2023-10-19T09:46:00;17.33;;;14.55;;
46411;SDS011;32113;42.012;24.870;2023-10-19T09:48:31;16.83;;;13.23;;
46411;SDS011;32113;42.012;24.870;2023-10-19T09:51:00;16.08;;;13.05;;
46411;SDS011;32113;42.012;24.870;2023-10-19T09:53:28;17.05;;;12.15;;
46411;SDS011;32113;42.012;24.870;2023-10-19T09:55:57;18.38;;;13.90;;
46411;SDS011;32113;42.012;24.870;2023-10-19T09:58:24;17.85;;;13.25;;
46411;SDS011;32113;42.012;24.870;2023-10-19T10:00:54;13.23;;;11.82;;
46411;SDS011;32113;42.012;24.870;2023-10-19T10:06:13;20.08;;;12.45;;
46411;SDS011;32113;42.012;24.870;2023-10-19T10:08:40;14.35;;;11.88;;
46411;SDS011;32113;42.012;24.870;2023-10-19T10:13:42;14.93;;;11.93;;
46411;SDS011;32113;42.012;24.870;2023-10-19T10:16:09;19.15;;;13.75;;
46411;SDS011;32113;42.012;24.870;2023-10-19T10:18:39;16.60;;;13.45;;
46411;SDS011;32113;42.012;24.870;2023-10-19T10:21:06;16.92;;;11.35;;
46411;SDS011;32113;42.012;24.870;2023-10-19T10:23:51;13.15;;;10.88;;
46411;SDS011;32113;42.012;24.870;2023-10-19T10:26:24;13.93;;;11.35;;
46411;SDS011;32113;42.012;24.870;2023-10-19T10:31:46;15.80;;;11.07;;
46411;SDS011;32113;42.012;24.870;2023-10-19T10:37:07;14.88;;;11.02;;
46411;SDS011;32113;42.012;24.870;2023-10-19T10:39:35;14.23;;;10.85;;
46411;SDS011;32113;42.012;24.870;2023-10-19T10:42:04;14.00;;;10.33;;
46411;SDS011;32113;42.012;24.870;2023-10-19T10:44:41;10.95;;;9.85;;
46411;SDS011;32113;42.012;24.870;2023-10-19T10:47:08;13.07;;;9.57;;
46411;SDS011;32113;42.012;24.870;2023-10-19T10:52:30;11.93;;;9.93;;
46411;SDS011;32113;42.012;24.870;2023-10-19T10:55:04;11.43;;;8.70;;
46411;SDS011;32113;42.012;24.870;2023-10-19T10:57:32;15.52;;;9.40;;
46411;SDS011;32113;42.012;24.870;2023-10-19T11:00:05;11.05;;;8.60;;
46411;SDS011;32113;42.012;24.870;2023-10-19T11:02:40;12.18;;;9.48;;
46411;SDS011;32113;42.012;24.870;2023-10-19T11:05:11;11.30;;;9.65;;
46411;SDS011;32113;42.012;24.870;2023-10-19T11:07:40;11.52;;;9.00;;
46411;SDS011;32113;42.012;24.870;2023-10-19T11:10:27;19.67;;;9.43;;
46411;SDS011;32113;42.012;24.870;2023-10-19T11:12:59;11.23;;;9.48;;
46411;SDS011;32113;42.012;24.870;2023-10-19T11:15:28;13.30;;;9.18;;
46411;SDS011;32113;42.012;24.870;2023-10-19T11:17:54;9.98;;;8.23;;
46411;SDS011;32113;42.012;24.870;2023-10-19T11:20:23;10.68;;;7.97;;
46411;SDS011;32113;42.012;24.870;2023-10-19T11:22:50;10.38;;;8.20;;
46411;SDS011;32113;42.012;24.870;2023-10-19T11:25:20;10.90;;;8.40;;
46411;SDS011;32113;42.012;24.870;2023-10-19T11:27:47;10.38;;;7.88;;
46411;SDS011;32113;42.012;24.870;2023-10-19T11:30:13;9.80;;;8.02;;
46411;SDS011;32113;42.012;24.870;2023-10-19T11:32:39;9.80;;;7.75;;
46411;SDS011;32113;42.012;24.870;2023-10-19T11:35:04;13.88;;;8.30;;
46411;SDS011;32113;42.012;24.870;2023-10-19T11:37:54;10.13;;;8.00;;
46411;SDS011;32113;42.012;24.870;2023-10-19T11:40:22;9.48;;;7.32;;
46411;SDS011;32113;42.012;24.870;2023-10-19T11:42:49;9.07;;;7.22;;
46411;SDS011;32113;42.012;24.870;2023-10-19T11:45:15;11.57;;;7.80;;
46411;SDS011;32113;42.012;24.870;2023-10-19T11:48:24;10.98;;;7.00;;
46411;SDS011;32113;42.012;24.870;2023-10-19T11:50:52;12.27;;;7.22;;
46411;SDS011;32113;42.012;24.870;2023-10-19T11:53:18;8.82;;;7.28;;
46411;SDS011;32113;42.012;24.870;2023-10-19T11:55:44;10.60;;;6.60;;
46411;SDS011;32113;42.012;24.870;2023-10-19T11:58:13;10.07;;;7.00;;
46411;SDS011;32113;42.012;24.870;2023-10-19T12:00:39;8.45;;;6.68;;
46411;SDS011;32113;42.012;24.870;2023-10-19T12:03:08;8.90;;;6.57;;
46411;SDS011;32113;42.012;24.870;2023-10-19T12:05:35;9.75;;;6.55;;
46411;SDS011;32113;42.012;24.870;2023-10-19T12:08:02;7.40;;;5.85;;
46411;SDS011;32113;42.012;24.870;2023-10-19T12:10:28;10.75;;;6.63;;
46411;SDS011;32113;42.012;24.870;2023-10-19T12:13:03;12.98;;;7.10;;
46411;SDS011;32113;42.012;24.870;2023-10-19T12:15:31;8.68;;;6.15;;
46411;SDS011;32113;42.012;24.870;2023-10-19T12:17:57;9.07;;;6.45;;
46411;SDS011;32113;42.012;24.870;2023-10-19T12:20:23;8.25;;;6.20;;
46411;SDS011;32113;42.012;24.870;2023-10-19T12:22:48;9.75;;;5.40;;
46411;SDS011;32113;42.012;24.870;2023-10-19T12:25:18;7.88;;;6.05;;
46411;SDS011;32113;42.012;24.870;2023-10-19T12:27:44;9.23;;;6.28;;
46411;SDS011;32113;42.012;24.870;2023-10-19T12:30:10;7.60;;;5.97;;
46411;SDS011;32113;42.012;24.870;2023-10-19T12:32:44;6.78;;;5.80;;
46411;SDS011;32113;42.012;24.870;2023-10-19T12:35:09;6.90;;;5.63;;
46411;SDS011;32113;42.012;24.870;2023-10-19T12:37:37;8.40;;;6.30;;
46411;SDS011;32113;42.012;24.870;2023-10-19T12:40:11;7.13;;;5.82;;
46411;SDS011;32113;42.012;24.870;2023-10-19T12:42:51;9.05;;;6.13;;
46411;SDS011;32113;42.012;24.870;2023-10-19T12:45:19;9.23;;;5.88;;
46411;SDS011;32113;42.012;24.870;2023-10-19T12:47:49;9.20;;;6.70;;
46411;SDS011;32113;42.012;24.870;2023-10-19T12:50:16;12.15;;;7.55;;
46411;SDS011;32113;42.012;24.870;2023-10-19T12:52:49;11.13;;;7.13;;
46411;SDS011;32113;42.012;24.870;2023-10-19T12:55:15;10.10;;;7.93;;
46411;SDS011;32113;42.012;24.870;2023-10-19T12:57:41;11.18;;;7.15;;
46411;SDS011;32113;42.012;24.870;2023-10-19T13:00:07;9.40;;;6.85;;
46411;SDS011;32113;42.012;24.870;2023-10-19T13:02:54;7.35;;;6.28;;
46411;SDS011;32113;42.012;24.870;2023-10-19T13:05:28;9.13;;;6.45;;
46411;SDS011;32113;42.012;24.870;2023-10-19T13:07:57;8.73;;;6.90;;
46411;SDS011;32113;42.012;24.870;2023-10-19T13:10:27;11.10;;;6.18;;
46411;SDS011;32113;42.012;24.870;2023-10-19T13:12:53;10.00;;;6.25;;
46411;SDS011;32113;42.012;24.870;2023-10-19T13:15:19;8.05;;;6.13;;
46411;SDS011;32113;42.012;24.870;2023-10-19T13:17:47;10.25;;;6.80;;
46411;SDS011;32113;42.012;24.870;2023-10-19T13:20:13;12.98;;;7.20;;
46411;SDS011;32113;42.012;24.870;2023-10-19T13:22:43;9.68;;;6.85;;
46411;SDS011;32113;42.012;24.870;2023-10-19T13:25:08;9.10;;;6.63;;
46411;SDS011;32113;42.012;24.870;2023-10-19T13:27:34;10.50;;;6.28;;
46411;SDS011;32113;42.012;24.870;2023-10-19T13:30:00;9.88;;;6.43;;
46411;SDS011;32113;42.012;24.870;2023-10-19T13:32:29;10.20;;;7.25;;
46411;SDS011;32113;42.012;24.870;2023-10-19T13:34:56;10.45;;;6.80;;
46411;SDS011;32113;42.012;24.870;2023-10-19T13:37:21;10.55;;;7.35;;
46411;SDS011;32113;42.012;24.870;2023-10-19T13:39:47;8.88;;;7.60;;
46411;SDS011;32113;42.012;24.870;2023-10-19T13:42:12;9.15;;;6.60;;
46411;SDS011;32113;42.012;24.870;2023-10-19T13:44:39;11.32;;;7.20;;
46411;SDS011;32113;42.012;24.870;2023-10-19T13:47:04;12.15;;;6.65;;
46411;SDS011;32113;42.012;24.870;2023-10-19T13:49:31;7.50;;;6.57;;
46411;SDS011;32113;42.012;24.870;2023-10-19T13:51:57;12.43;;;6.50;;
46411;SDS011;32113;42.012;24.870;2023-10-19T13:54:23;8.60;;;6.40;;
46411;SDS011;32113;42.012;24.870;2023-10-19T13:56:48;10.48;;;6.60;;
46411;SDS011;32113;42.012;24.870;2023-10-19T13:59:15;7.45;;;6.60;;
46411;SDS011;32113;42.012;24.870;2023-10-19T14:01:41;8.60;;;7.05;;
46411;SDS011;32113;42.012;24.870;2023-10-19T14:04:06;10.45;;;6.63;;
46411;SDS011;32113;42.012;24.870;2023-10-19T14:06:32;12.70;;;8.10;;
46411;SDS011;32113;42.012;24.870;2023-10-19T14:08:57;10.63;;;8.32;;
46411;SDS011;32113;42.012;24.870;2023-10-19T14:11:22;6.82;;;5.90;;
46411;SDS011;32113;42.012;24.870;2023-10-19T14:13:48;13.15;;;8.07;;
46411;SDS011;32113;42.012;24.870;2023-10-19T14:16:15;15.13;;;8.77;;
46411;SDS011;32113;42.012;24.870;2023-10-19T14:18:41;10.13;;;6.90;;
46411;SDS011;32113;42.012;24.870;2023-10-19T14:21:15;15.23;;;9.30;;
46411;SDS011;32113;42.012;24.870;2023-10-19T14:23:43;13.88;;;8.10;;
46411;SDS011;32113;42.012;24.870;2023-10-19T14:26:09;12.95;;;7.25;;
46411;SDS011;32113;42.012;24.870;2023-10-19T14:28:35;9.50;;;7.22;;
46411;SDS011;32113;42.012;24.870;2023-10-19T14:31:01;8.82;;;6.72;;
46411;SDS011;32113;42.012;24.870;2023-10-19T14:33:29;11.80;;;7.60;;
46411;SDS011;32113;42.012;24.870;2023-10-19T14:35:55;10.88;;;6.47;;
46411;SDS011;32113;42.012;24.870;2023-10-19T14:38:20;12.45;;;7.25;;
46411;SDS011;32113;42.012;24.870;2023-10-19T14:40:46;13.98;;;6.97;;
46411;SDS011;32113;42.012;24.870;2023-10-19T14:43:13;9.68;;;7.40;;
46411;SDS011;32113;42.012;24.870;2023-10-19T14:45:40;8.98;;;7.18;;
46411;SDS011;32113;42.012;24.870;2023-10-19T14:48:07;14.55;;;8.65;;
46411;SDS011;32113;42.012;24.870;2023-10-19T14:50:35;13.68;;;8.38;;
46411;SDS011;32113;42.012;24.870;2023-10-19T14:53:00;20.20;;;9.85;;
46411;SDS011;32113;42.012;24.870;2023-10-19T14:55:26;13.18;;;10.18;;
46411;SDS011;32113;42.012;24.870;2023-10-19T14:57:54;17.35;;;11.07;;